Time;durP1;ratioP1;P1;durP2;ratioP2;P2;SDS_P1;SDS_P2;PMS_P1;PMS_P2;Temp;Humidity;BMP_temperature;BMP_pressure;BME280_temperature;BME280_humidity;BME280_pressure;Samples;Min_cycle;Max_cycle;Signal;HPM_P1;HPM_P2
2023/08/25 00:02:39;;;;;;;17.53;11.40;;;;;;;;;;6261080;28;20059;-60
2023/08/25 00:05:40;;;;;;;13.83;10.43;;;;;;;;;;6260329;28;20045;-60
2023/08/25 00:08:41;;;;;;;16.53;12.03;;;;;;;;;;6258483;28;20140;-60
2023/08/25 00:11:41;;;;;;;16.13;11.40;;;;;;;;;;6257314;28;20036;-60
2023/08/25 00:14:42;;;;;;;15.63;11.00;;;;;;;;;;6259053;28;20411;-59
2023/08/25 00:17:43;;;;;;;15.67;11.07;;;;;;;;;;6258178;28;20041;-59
2023/08/25 00:20:43;;;;;;;16.43;11.03;;;;;;;;;;6256225;28;20045;-61
2023/08/25 00:23:44;;;;;;;17.77;10.87;;;;;;;;;;6258104;28;20049;-59
2023/08/25 00:26:45;;;;;;;17.27;11.20;;;;;;;;;;6259165;28;20447;-59
2023/08/25 00:29:46;;;;;;;18.15;10.68;;;;;;;;;;6258218;28;20438;-61
2023/08/25 00:32:46;;;;;;;14.30;10.70;;;;;;;;;;6257792;28;20045;-59
2023/08/25 00:35:48;;;;;;;14.50;10.63;;;;;;;;;;6256384;28;20049;-60
2023/08/25 00:38:49;;;;;;;13.95;10.55;;;;;;;;;;6259589;28;20041;-60
2023/08/25 00:41:49;;;;;;;14.07;10.43;;;;;;;;;;6256666;28;20593;-60
2023/08/25 00:44:50;;;;;;;17.23;11.07;;;;;;;;;;6258667;28;20055;-60
2023/08/25 00:47:50;;;;;;;16.07;10.53;;;;;;;;;;6255903;28;20048;-59
2023/08/25 00:50:51;;;;;;;17.17;11.20;;;;;;;;;;6255402;28;20082;-61
2023/08/25 00:53:52;;;;;;;15.23;11.23;;;;;;;;;;6262748;28;20043;-58
2023/08/25 00:56:53;;;;;;;15.03;10.83;;;;;;;;;;6261964;28;20049;-59
2023/08/25 00:59:54;;;;;;;14.93;11.17;;;;;;;;;;6262902;28;20424;-60
2023/08/25 01:02:54;;;;;;;17.57;11.50;;;;;;;;;;6261709;28;20656;-60
2023/08/25 01:05:56;;;;;;;14.00;10.87;;;;;;;;;;6263868;28;20106;-60
2023/08/25 01:08:56;;;;;;;16.43;10.30;;;;;;;;;;6262072;28;20863;-57
2023/08/25 01:12:04;;;;;;;15.17;10.87;;;;;;;;;;6264095;28;20080;-59
2023/08/25 01:15:13;;;;;;;16.02;11.65;;;;;;;;;;6265487;28;20057;-58
2023/08/25 01:18:34;;;;;;;14.90;10.35;;;;;;;;;;6263346;28;20385;-58
2023/08/25 01:21:37;;;;;;;15.98;10.60;;;;;;;;;;6260370;28;20049;-57
2023/08/25 01:24:42;;;;;;;17.63;10.48;;;;;;;;;;6262194;28;20407;-60
2023/08/25 01:27:43;;;;;;;14.23;10.48;;;;;;;;;;6263597;28;20041;-58
2023/08/25 01:30:44;;;;;;;14.30;10.52;;;;;;;;;;6263177;28;20045;-60
2023/08/25 01:33:46;;;;;;;17.07;11.23;;;;;;;;;;6264966;28;20053;-60
2023/08/25 01:37:04;;;;;;;17.40;11.32;;;;;;;;;;6262840;28;20308;-59
2023/08/25 01:40:15;;;;;;;15.90;10.43;;;;;;;;;;6259051;28;20148;-59
2023/08/25 01:43:18;;;;;;;15.70;10.75;;;;;;;;;;6260445;28;20045;-59
2023/08/25 01:46:20;;;;;;;14.70;10.05;;;;;;;;;;6263841;28;20044;-59
2023/08/25 01:49:22;;;;;;;14.32;10.25;;;;;;;;;;6261325;28;20045;-59
2023/08/25 01:52:23;;;;;;;14.50;11.07;;;;;;;;;;6261597;28;20045;-59
2023/08/25 01:55:24;;;;;;;;;;;;;;;;;;6262509;28;20045;-58
2023/08/25 01:58:24;;;;;;;13.75;9.60;;;;;;;;;;6260916;28;20324;-58
2023/08/25 02:01:30;;;;;;;15.33;10.10;;;;;;;;;;6260248;28;20048;-59
2023/08/25 02:04:31;;;;;;;16.83;10.95;;;;;;;;;;6262577;28;20053;-59
2023/08/25 02:07:31;;;;;;;14.47;10.50;;;;;;;;;;6262184;28;20080;-58
2023/08/25 02:10:32;;;;;;;14.57;10.90;;;;;;;;;;6262999;28;20057;-59
2023/08/25 02:13:33;;;;;;;15.03;10.73;;;;;;;;;;6262840;28;20484;-59
2023/08/25 02:16:33;;;;;;;15.43;10.63;;;;;;;;;;6260859;28;20049;-58
2023/08/25 02:19:34;;;;;;;14.40;10.37;;;;;;;;;;6262239;28;20132;-57
2023/08/25 02:22:34;;;;;;;15.50;10.67;;;;;;;;;;6264387;28;20049;-57
2023/08/25 02:25:35;;;;;;;16.13;10.87;;;;;;;;;;6260311;28;20053;-59
2023/08/25 02:28:36;;;;;;;14.70;10.70;;;;;;;;;;6262346;28;20041;-59
2023/08/25 02:31:36;;;;;;;14.87;10.13;;;;;;;;;;6260516;28;20128;-59
2023/08/25 02:34:37;;;;;;;14.77;10.50;;;;;;;;;;6258862;28;20104;-59
2023/08/25 02:37:57;;;;;;;17.17;10.97;;;;;;;;;;6260004;28;20048;-60
2023/08/25 02:40:58;;;;;;;16.42;10.07;;;;;;;;;;6257894;28;20054;-60
2023/08/25 02:43:58;;;;;;;14.00;10.40;;;;;;;;;;6259373;28;20053;-60
2023/08/25 02:46:59;;;;;;;13.67;10.70;;;;;;;;;;6261565;28;20480;-60
2023/08/25 02:49:59;;;;;;;14.90;10.33;;;;;;;;;;6259972;28;20103;-61
2023/08/25 02:53:00;;;;;;;15.67;10.27;;;;;;;;;;6259571;28;20090;-61
2023/08/25 02:56:02;;;;;;;15.23;10.40;;;;;;;;;;6257656;28;20045;-60
2023/08/25 02:59:02;;;;;;;18.77;10.57;;;;;;;;;;6257573;28;20503;-59
2023/08/25 03:02:03;;;;;;;16.33;10.40;;;;;;;;;;6260065;28;20065;-61
2023/08/25 03:05:04;;;;;;;12.83;10.07;;;;;;;;;;6257596;28;20061;-60
2023/08/25 03:08:08;;;;;;;18.10;10.87;;;;;;;;;;6257634;28;20094;-60
2023/08/25 03:11:09;;;;;;;16.10;10.60;;;;;;;;;;6258366;28;20049;-60
2023/08/25 03:14:10;;;;;;;14.27;10.53;;;;;;;;;;6259219;28;20041;-60
2023/08/25 03:17:10;;;;;;;15.50;10.67;;;;;;;;;;6258626;28;20086;-59
2023/08/25 03:20:11;;;;;;;21.23;11.57;;;;;;;;;;6260261;28;20076;-59
2023/08/25 03:23:11;;;;;;;17.70;11.47;;;;;;;;;;6258878;28;20480;-60
2023/08/25 03:26:12;;;;;;;19.77;11.70;;;;;;;;;;6256983;28;21450;-60
2023/08/25 03:29:13;;;;;;;20.60;11.43;;;;;;;;;;6256232;28;20041;-59
2023/08/25 03:32:13;;;;;;;21.00;10.90;;;;;;;;;;6257930;28;20041;-56
2023/08/25 03:35:14;;;;;;;16.53;10.20;;;;;;;;;;6257324;28;20037;-58
2023/08/25 03:38:15;;;;;;;17.77;11.57;;;;;;;;;;6259831;28;20045;-58
2023/08/25 03:41:15;;;;;;;16.80;11.00;;;;;;;;;;6258882;28;20049;-59
2023/08/25 03:44:16;;;;;;;15.63;10.47;;;;;;;;;;6256640;28;20799;-59
2023/08/25 03:47:16;;;;;;;19.70;10.83;;;;;;;;;;6258086;28;20056;-59
2023/08/25 03:50:17;;;;;;;16.03;10.67;;;;;;;;;;6257433;28;20160;-59
2023/08/25 03:53:17;;;;;;;17.03;10.03;;;;;;;;;;6257128;28;20049;-58
2023/08/25 03:56:18;;;;;;;15.93;11.20;;;;;;;;;;6258225;28;20536;-58
2023/08/25 03:59:19;;;;;;;16.67;10.70;;;;;;;;;;6256620;28;20052;-59
2023/08/25 04:02:19;;;;;;;21.47;10.50;;;;;;;;;;6256664;28;20410;-58
2023/08/25 04:05:20;;;;;;;13.47;10.57;;;;;;;;;;6256939;28;20053;-58
2023/08/25 04:08:20;;;;;;;15.17;10.33;;;;;;;;;;6261207;28;20088;-58
2023/08/25 04:11:21;;;;;;;20.93;10.60;;;;;;;;;;6257934;28;20496;-58
2023/08/25 04:14:22;;;;;;;14.83;10.47;;;;;;;;;;6257490;28;20147;-59
2023/08/25 04:17:22;;;;;;;16.27;10.23;;;;;;;;;;6254178;28;20126;-58
2023/08/25 04:20:23;;;;;;;15.53;10.30;;;;;;;;;;6255889;28;20135;-58
2023/08/25 04:23:25;;;;;;;17.63;10.40;;;;;;;;;;6258031;28;20056;-56
2023/08/25 04:26:26;;;;;;;14.85;10.48;;;;;;;;;;6257464;28;20119;-58
2023/08/25 04:29:27;;;;;;;16.83;10.07;;;;;;;;;;6258353;28;20056;-59
2023/08/25 04:32:28;;;;;;;17.03;11.57;;;;;;;;;;6260714;28;20045;-60
2023/08/25 04:35:28;;;;;;;18.73;12.00;;;;;;;;;;6259056;28;20056;-61
2023/08/25 04:38:29;;;;;;;16.07;10.53;;;;;;;;;;6258164;28;20041;-60
2023/08/25 04:41:30;;;;;;;16.10;11.00;;;;;;;;;;6254323;28;20424;-60
2023/08/25 04:44:30;;;;;;;18.33;10.80;;;;;;;;;;6255144;28;20064;-60
2023/08/25 04:47:31;;;;;;;21.90;11.50;;;;;;;;;;6253819;28;20396;-60
2023/08/25 04:50:31;;;;;;;17.43;11.00;;;;;;;;;;6259127;28;20479;-57
2023/08/25 04:53:32;;;;;;;15.97;11.13;;;;;;;;;;6257525;28;20053;-58
2023/08/25 04:56:33;;;;;;;17.30;11.13;;;;;;;;;;6255871;28;20139;-58
2023/08/25 04:59:33;;;;;;;19.47;11.33;;;;;;;;;;6257996;28;20513;-60
2023/08/25 05:02:34;;;;;;;17.37;11.47;;;;;;;;;;6257705;28;20053;-58
2023/08/25 05:05:35;;;;;;;19.07;11.17;;;;;;;;;;6255053;28;20107;-59
2023/08/25 05:08:36;;;;;;;18.73;10.60;;;;;;;;;;6256920;28;20708;-58
2023/08/25 05:11:37;;;;;;;21.47;11.17;;;;;;;;;;6257006;28;20057;-64
2023/08/25 05:14:38;;;;;;;13.82;9.98;;;;;;;;;;6260983;28;20049;-58
2023/08/25 05:17:39;;;;;;;14.77;10.33;;;;;;;;;;6262638;28;20087;-60
2023/08/25 05:20:40;;;;;;;17.13;9.97;;;;;;;;;;6265024;28;20094;-59
2023/08/25 05:23:48;;;;;;;13.17;10.50;;;;;;;;;;6255788;28;20053;-59
2023/08/25 05:26:52;;;;;;;18.63;10.38;;;;;;;;;;6264629;28;20102;-58
2023/08/25 05:29:53;;;;;;;18.42;11.00;;;;;;;;;;6266093;28;20468;-59
2023/08/25 05:32:54;;;;;;;24.43;11.20;;;;;;;;;;6265104;28;20072;-60
2023/08/25 05:35:54;;;;;;;34.63;12.07;;;;;;;;;;6263569;28;20518;-61
2023/08/25 05:38:55;;;;;;;26.50;11.60;;;;;;;;;;6268173;28;20468;-60
2023/08/25 05:41:55;;;;;;;18.07;10.77;;;;;;;;;;6269355;28;20048;-60
2023/08/25 05:44:56;;;;;;;17.13;10.47;;;;;;;;;;6269145;28;20049;-61
2023/08/25 05:47:57;;;;;;;22.70;10.90;;;;;;;;;;6269111;28;20107;-59
2023/08/25 05:50:57;;;;;;;23.77;11.33;;;;;;;;;;6269608;28;20125;-59
2023/08/25 05:53:58;;;;;;;22.27;11.50;;;;;;;;;;6267317;28;20395;-60
2023/08/25 05:56:58;;;;;;;20.53;10.60;;;;;;;;;;6268469;28;20049;-60
2023/08/25 05:59:59;;;;;;;19.73;11.27;;;;;;;;;;6269427;28;20412;-60
2023/08/25 06:03:02;;;;;;;16.60;10.50;;;;;;;;;;6256310;28;20049;-60
2023/08/25 06:06:03;;;;;;;18.48;11.15;;;;;;;;;;6260944;28;20385;-59
2023/08/25 06:09:05;;;;;;;20.90;11.95;;;;;;;;;;6262401;28;20056;-63
2023/08/25 06:12:05;;;;;;;;;;;;;;;;;;6269821;28;20048;-54
2023/08/25 06:15:06;;;;;;;31.88;17.45;;;;;;;;;;6268076;28;19925;-62
2023/08/25 06:18:07;;;;;;;42.57;20.37;;;;;;;;;;6268371;28;20443;-59
2023/08/25 06:21:09;;;;;;;31.83;17.43;;;;;;;;;;6268288;28;20711;-64
2023/08/25 06:24:09;;;;;;;41.72;18.27;;;;;;;;;;6268329;28;20053;-60
2023/08/25 06:27:10;;;;;;;21.70;12.20;;;;;;;;;;6267896;28;20507;-57
2023/08/25 06:30:11;;;;;;;15.40;9.90;;;;;;;;;;6267552;28;20049;-66
2023/08/25 06:33:11;;;;;;;24.03;13.47;;;;;;;;;;6268979;28;20051;-65
2023/08/25 06:36:12;;;;;;;16.27;9.80;;;;;;;;;;6267522;28;20684;-60
2023/08/25 06:39:12;;;;;;;14.47;9.10;;;;;;;;;;6267820;28;20102;-57
2023/08/25 06:42:13;;;;;;;17.90;10.33;;;;;;;;;;6269313;28;20048;-59
2023/08/25 06:45:14;;;;;;;58.07;23.63;;;;;;;;;;6267753;28;20182;-58
2023/08/25 06:48:15;;;;;;;28.00;11.80;;;;;;;;;;6267582;28;20313;-60
2023/08/25 06:51:16;;;;;;;18.23;11.57;;;;;;;;;;6266873;28;20076;-62
2023/08/25 06:54:16;;;;;;;22.00;10.13;;;;;;;;;;6267233;28;20148;-59
2023/08/25 06:57:17;;;;;;;33.60;14.97;;;;;;;;;;6267192;28;20602;-62
2023/08/25 07:00:18;;;;;;;20.43;11.40;;;;;;;;;;6268154;28;20048;-63
2023/08/25 07:03:19;;;;;;;16.85;10.20;;;;;;;;;;6268189;28;20087;-61
2023/08/25 07:06:19;;;;;;;17.73;9.43;;;;;;;;;;6266364;28;20433;-63
2023/08/25 07:09:20;;;;;;;13.93;8.93;;;;;;;;;;6267159;28;20099;-65
2023/08/25 07:12:20;;;;;;;13.13;8.93;;;;;;;;;;6267961;28;20044;-61
2023/08/25 07:15:21;;;;;;;17.00;9.23;;;;;;;;;;6264598;28;20049;-60
2023/08/25 07:18:24;;;;;;;13.93;9.30;;;;;;;;;;6266613;28;20041;-60
2023/08/25 07:21:25;;;;;;;18.67;9.65;;;;;;;;;;6266953;28;20040;-59
2023/08/25 07:24:25;;;;;;;20.77;9.80;;;;;;;;;;6265902;28;20060;-61
2023/08/25 07:27:26;;;;;;;19.97;9.27;;;;;;;;;;6265834;28;20159;-60
2023/08/25 07:30:26;;;;;;;14.93;9.17;;;;;;;;;;6266479;28;21043;-60
2023/08/25 07:33:27;;;;;;;13.73;8.80;;;;;;;;;;6266524;28;20143;-61
2023/08/25 07:36:27;;;;;;;14.67;9.27;;;;;;;;;;6266216;28;20041;-62
2023/08/25 07:39:29;;;;;;;14.13;8.77;;;;;;;;;;6266851;28;20049;-61
2023/08/25 07:42:29;;;;;;;17.17;9.07;;;;;;;;;;6266416;28;20132;-65
2023/08/25 07:45:30;;;;;;;20.63;9.87;;;;;;;;;;6264839;28;20080;-59
2023/08/25 07:48:31;;;;;;;28.60;10.32;;;;;;;;;;6262568;28;20059;-59
2023/08/25 07:51:32;;;;;;;17.73;9.67;;;;;;;;;;6266880;28;20067;-60
2023/08/25 07:54:32;;;;;;;27.47;9.90;;;;;;;;;;6253153;28;20049;-60
2023/08/25 07:57:33;;;;;;;21.30;9.40;;;;;;;;;;6266125;28;20123;-60
2023/08/25 08:00:34;;;;;;;18.20;9.57;;;;;;;;;;6266660;28;20450;-60
2023/08/25 08:03:34;;;;;;;15.07;8.98;;;;;;;;;;6266064;28;20052;-60
2023/08/25 08:06:35;;;;;;;15.07;8.67;;;;;;;;;;6265729;28;20468;-61
2023/08/25 08:09:36;;;;;;;16.25;8.95;;;;;;;;;;6265961;28;20055;-60
2023/08/25 08:12:38;;;;;;;15.70;9.50;;;;;;;;;;6265871;28;20050;-61
2023/08/25 08:15:39;;;;;;;14.63;8.68;;;;;;;;;;6265364;28;20057;-61
2023/08/25 08:18:39;;;;;;;18.43;9.43;;;;;;;;;;6265084;28;20106;-60
2023/08/25 08:21:40;;;;;;;20.13;9.10;;;;;;;;;;6265343;28;20064;-60
2023/08/25 08:24:47;;;;;;;13.50;9.00;;;;;;;;;;6265522;28;20052;-61
2023/08/25 08:27:48;;;;;;;16.30;9.25;;;;;;;;;;6265060;28;20435;-61
2023/08/25 08:30:48;;;;;;;18.17;9.47;;;;;;;;;;6266127;28;20420;-61
2023/08/25 08:33:49;;;;;;;25.33;10.30;;;;;;;;;;6265559;28;20060;-61
2023/08/25 08:36:50;;;;;;;15.75;8.52;;;;;;;;;;6264861;28;20122;-61
2023/08/25 08:39:51;;;;;;;16.05;9.98;;;;;;;;;;6257756;28;20095;-61
2023/08/25 08:42:54;;;;;;;17.13;9.93;;;;;;;;;;6264891;28;20041;-61
2023/08/25 08:45:55;;;;;;;15.48;9.60;;;;;;;;;;6265136;28;20053;-60
2023/08/25 08:48:56;;;;;;;16.40;10.67;;;;;;;;;;6262867;28;20041;-60
2023/08/25 08:51:58;;;;;;;14.75;9.65;;;;;;;;;;6265007;28;20067;-60
2023/08/25 08:54:59;;;;;;;23.75;10.55;;;;;;;;;;6264912;28;20182;-61
2023/08/25 08:58:00;;;;;;;17.63;10.95;;;;;;;;;;6263358;28;20140;-61
2023/08/25 09:01:03;;;;;;;15.77;11.27;;;;;;;;;;6265841;28;20122;-60
2023/08/25 09:04:07;;;;;;;19.73;10.25;;;;;;;;;;6265509;28;20048;-61
2023/08/25 09:07:09;;;;;;;16.90;10.35;;;;;;;;;;6264685;28;20052;-61
2023/08/25 09:10:10;;;;;;;15.93;10.27;;;;;;;;;;6262775;28;20734;-60
2023/08/25 09:13:10;;;;;;;26.37;12.90;;;;;;;;;;6263127;28;20122;-61
2023/08/25 09:16:12;;;;;;;87.97;25.95;;;;;;;;;;6259982;28;20075;-59
2023/08/25 09:19:13;;;;;;;57.75;19.40;;;;;;;;;;6256977;28;20044;-61
2023/08/25 09:22:17;;;;;;;39.50;15.43;;;;;;;;;;6259774;28;20052;-61
2023/08/25 09:25:18;;;;;;;28.88;11.38;;;;;;;;;;6259853;28;20731;-61
2023/08/25 09:28:23;;;;;;;21.55;12.77;;;;;;;;;;6260419;28;20098;-60
2023/08/25 09:31:29;;;;;;;32.67;13.85;;;;;;;;;;6259232;28;20056;-61
2023/08/25 09:34:31;;;;;;;14.57;11.45;;;;;;;;;;6256666;28;20167;-61
2023/08/25 09:37:42;;;;;;;19.77;11.63;;;;;;;;;;6258116;28;20087;-60
2023/08/25 09:40:45;;;;;;;23.92;13.38;;;;;;;;;;6260668;28;20056;-61
2023/08/25 09:43:46;;;;;;;14.32;11.10;;;;;;;;;;6261615;28;20045;-60
2023/08/25 09:46:50;;;;;;;15.37;12.47;;;;;;;;;;6258918;28;20084;-60
2023/08/25 09:49:52;;;;;;;15.18;11.68;;;;;;;;;;6261642;28;20102;-61
2023/08/25 09:52:53;;;;;;;16.55;11.80;;;;;;;;;;6258303;28;20041;-61
2023/08/25 09:56:06;;;;;;;16.15;11.65;;;;;;;;;;6261083;28;20053;-61
2023/08/25 09:59:08;;;;;;;30.45;12.40;;;;;;;;;;6256872;28;20477;-60
2023/08/25 10:02:11;;;;;;;16.30;12.05;;;;;;;;;;6257066;28;20044;-61
2023/08/25 10:05:12;;;;;;;18.50;11.75;;;;;;;;;;6257668;28;20071;-61
2023/08/25 10:08:14;;;;;;;15.30;11.60;;;;;;;;;;6255012;28;20101;-61
2023/08/25 10:11:16;;;;;;;16.08;12.25;;;;;;;;;;6256192;28;20405;-61
2023/08/25 10:14:23;;;;;;;16.20;12.55;;;;;;;;;;6257845;28;20118;-60
2023/08/25 10:17:25;;;;;;;20.92;12.00;;;;;;;;;;6257687;28;20097;-60
2023/08/25 10:20:26;;;;;;;17.05;11.60;;;;;;;;;;6258966;28;20052;-61
2023/08/25 10:23:28;;;;;;;14.73;11.80;;;;;;;;;;6257483;28;20053;-61
2023/08/25 10:26:29;;;;;;;14.60;12.10;;;;;;;;;;6257442;28;20062;-59
2023/08/25 10:29:31;;;;;;;14.90;11.80;;;;;;;;;;6264291;28;20049;-60
2023/08/25 10:32:47;;;;;;;;;;;;;;;;;;6265535;28;20094;-60
2023/08/25 10:35:48;;;;;;;16.40;12.00;;;;;;;;;;6267062;28;19965;-61
2023/08/25 10:38:58;;;;;;;14.27;11.50;;;;;;;;;;6267777;28;20056;-61
2023/08/25 10:42:01;;;;;;;22.35;12.13;;;;;;;;;;6267240;28;20045;-61
2023/08/25 10:45:06;;;;;;;16.52;11.48;;;;;;;;;;6268361;28;20075;-61
2023/08/25 10:48:06;;;;;;;14.35;11.15;;;;;;;;;;6267907;28;20046;-62
2023/08/25 10:51:08;;;;;;;16.87;11.43;;;;;;;;;;6267559;28;20533;-58
2023/08/25 10:54:17;;;;;;;17.08;11.93;;;;;;;;;;6267803;28;20098;-58
2023/08/25 10:57:26;;;;;;;14.60;11.48;;;;;;;;;;6266853;28;20519;-57
2023/08/25 11:00:33;;;;;;;15.35;11.93;;;;;;;;;;6267966;28;20049;-59
2023/08/25 11:04:06;;;;;;;13.88;11.85;;;;;;;;;;6266931;28;20067;-53
2023/08/25 11:07:07;;;;;;;14.63;11.55;;;;;;;;;;6248649;28;20041;-53
2023/08/25 11:10:11;;;;;;;13.20;11.13;;;;;;;;;;6267117;28;20084;-58
2023/08/25 11:13:12;;;;;;;25.15;12.32;;;;;;;;;;6266871;28;20048;-56
2023/08/25 11:16:13;;;;;;;19.88;12.15;;;;;;;;;;6267302;28;20048;-59
2023/08/25 11:19:14;;;;;;;15.57;10.98;;;;;;;;;;6266383;28;20041;-59
2023/08/25 11:22:14;;;;;;;23.23;12.20;;;;;;;;;;6266067;28;20075;-55
2023/08/25 11:25:15;;;;;;;15.07;11.27;;;;;;;;;;6265072;28;20137;-52
2023/08/25 11:28:16;;;;;;;24.02;12.38;;;;;;;;;;6265631;28;20420;-53
2023/08/25 11:31:20;;;;;;;17.33;11.38;;;;;;;;;;6266065;28;20048;-59
2023/08/25 11:34:21;;;;;;;15.65;11.23;;;;;;;;;;6250688;28;20487;-60
2023/08/25 11:37:22;;;;;;;;;;;;;;;;;;6258005;28;20140;-55
2023/08/25 11:40:22;;;;;;;16.83;10.47;;;;;;;;;;6260162;28;20417;-58
2023/08/25 11:43:32;;;;;;;13.43;9.98;;;;;;;;;;6265586;28;20480;-60
2023/08/25 11:46:33;;;;;;;14.50;9.60;;;;;;;;;;6266534;28;20052;-59
2023/08/25 11:49:35;;;;;;;14.52;8.68;;;;;;;;;;6266337;28;20573;-60
2023/08/25 11:52:36;;;;;;;15.48;8.95;;;;;;;;;;6266459;28;20053;-58
2023/08/25 11:55:37;;;;;;;13.30;9.27;;;;;;;;;;6266143;28;20052;-55
2023/08/25 11:58:37;;;;;;;12.70;8.80;;;;;;;;;;6265580;28;20523;-58
2023/08/25 12:01:38;;;;;;;10.52;8.27;;;;;;;;;;6266547;28;20060;-59
2023/08/25 12:04:38;;;;;;;13.43;8.23;;;;;;;;;;6265360;28;20516;-60
2023/08/25 12:07:41;;;;;;;12.07;7.95;;;;;;;;;;6266201;28;20056;-60
2023/08/25 12:10:42;;;;;;;11.82;8.20;;;;;;;;;;6265925;28;20091;-60
2023/08/25 12:13:44;;;;;;;11.10;8.55;;;;;;;;;;6265684;28;20036;-53
2023/08/25 12:16:46;;;;;;;12.52;8.52;;;;;;;;;;6265795;28;20072;-60
2023/08/25 12:19:47;;;;;;;10.55;8.07;;;;;;;;;;6265536;28;20045;-60
2023/08/25 12:22:59;;;;;;;12.60;8.30;;;;;;;;;;6266063;28;20091;-60
2023/08/25 12:26:00;;;;;;;13.48;8.40;;;;;;;;;;6265378;28;20068;-61
2023/08/25 12:29:01;;;;;;;13.35;9.02;;;;;;;;;;6265528;28;20056;-61
2023/08/25 12:32:04;;;;;;;22.75;9.80;;;;;;;;;;6266053;28;20488;-61
2023/08/25 12:35:04;;;;;;;17.50;8.70;;;;;;;;;;6264953;28;20058;-58
2023/08/25 12:38:05;;;;;;;13.75;8.65;;;;;;;;;;6265278;28;20482;-60
2023/08/25 12:41:05;;;;;;;11.33;7.73;;;;;;;;;;6263127;28;20052;-53
2023/08/25 12:44:06;;;;;;;11.10;6.80;;;;;;;;;;6264847;28;20392;-60
2023/08/25 12:47:07;;;;;;;9.07;6.33;;;;;;;;;;6264824;28;20406;-60
2023/08/25 12:50:07;;;;;;;9.15;7.00;;;;;;;;;;6265242;28;20468;-52
2023/08/25 12:53:08;;;;;;;10.60;7.15;;;;;;;;;;6250874;28;20048;-51
2023/08/25 12:56:09;;;;;;;12.15;6.93;;;;;;;;;;6262605;28;20045;-52
2023/08/25 12:59:10;;;;;;;8.95;6.63;;;;;;;;;;6257032;28;20039;-53
2023/08/25 13:02:10;;;;;;;10.63;6.78;;;;;;;;;;6258264;28;20057;-54
2023/08/25 13:05:11;;;;;;;9.63;6.83;;;;;;;;;;6262351;28;20499;-54
2023/08/25 13:08:11;;;;;;;11.32;7.22;;;;;;;;;;6264433;28;20048;-52
2023/08/25 13:11:12;;;;;;;12.93;7.37;;;;;;;;;;6262165;28;20052;-50
2023/08/25 13:14:13;;;;;;;13.25;6.53;;;;;;;;;;6264110;28;20068;-53
2023/08/25 13:17:13;;;;;;;20.15;7.20;;;;;;;;;;6263811;28;20052;-51
2023/08/25 13:20:14;;;;;;;11.93;7.40;;;;;;;;;;6263273;28;20129;-52
2023/08/25 13:23:15;;;;;;;13.80;7.65;;;;;;;;;;6263089;28;20052;-52
2023/08/25 13:26:15;;;;;;;11.13;7.45;;;;;;;;;;6264396;28;20535;-49
2023/08/25 13:29:16;;;;;;;10.27;6.63;;;;;;;;;;6263707;28;20057;-51
2023/08/25 13:32:17;;;;;;;10.73;7.13;;;;;;;;;;6263837;28;20057;-51
2023/08/25 13:35:17;;;;;;;15.98;7.07;;;;;;;;;;6263595;28;20053;-53
2023/08/25 13:38:18;;;;;;;12.48;6.93;;;;;;;;;;6263744;28;20602;-52
2023/08/25 13:41:19;;;;;;;11.97;6.20;;;;;;;;;;6263982;28;20068;-55
2023/08/25 13:44:19;;;;;;;12.23;6.32;;;;;;;;;;6263685;28;20052;-54
2023/08/25 13:47:20;;;;;;;8.17;5.63;;;;;;;;;;6263630;28;20052;-50
2023/08/25 13:50:21;;;;;;;15.82;6.45;;;;;;;;;;6261215;28;20285;-52
2023/08/25 13:53:21;;;;;;;10.68;7.03;;;;;;;;;;6262921;28;20123;-53
2023/08/25 13:56:22;;;;;;;14.15;6.50;;;;;;;;;;6263414;28;20083;-57
2023/08/25 13:59:23;;;;;;;14.18;6.38;;;;;;;;;;6265464;28;20045;-55
2023/08/25 14:02:24;;;;;;;13.63;6.60;;;;;;;;;;6265958;28;20056;-50
2023/08/25 14:05:26;;;;;;;20.25;6.88;;;;;;;;;;6268118;28;20053;-55
2023/08/25 14:08:27;;;;;;;12.88;6.00;;;;;;;;;;6268455;28;20059;-53
2023/08/25 14:11:27;;;;;;;14.98;5.47;;;;;;;;;;6268144;28;20435;-52
2023/08/25 14:14:28;;;;;;;9.30;4.85;;;;;;;;;;6268035;28;20052;-50
2023/08/25 14:17:28;;;;;;;8.05;4.68;;;;;;;;;;6268422;28;20389;-52
2023/08/25 14:20:29;;;;;;;12.13;5.47;;;;;;;;;;6267763;28;20087;-52
2023/08/25 14:23:30;;;;;;;25.10;6.13;;;;;;;;;;6268752;28;20053;-53
2023/08/25 14:26:30;;;;;;;7.57;5.00;;;;;;;;;;6262529;28;20300;-51
2023/08/25 14:29:31;;;;;;;;;;;;;;;;;;6268714;28;20040;-52
2023/08/25 14:32:31;;;;;;;16.48;5.65;;;;;;;;;;6268104;28;19924;-53
2023/08/25 14:35:32;;;;;;;13.88;5.18;;;;;;;;;;6267497;28;20500;-54
2023/08/25 14:38:33;;;;;;;9.70;5.30;;;;;;;;;;6267890;28;20040;-54
2023/08/25 14:41:33;;;;;;;;;;;;;;;;;;6270416;28;20553;-54
2023/08/25 14:44:34;;;;;;;9.47;5.50;;;;;;;;;;6267325;28;20672;-54
2023/08/25 14:47:35;;;;;;;7.65;5.30;;;;;;;;;;6267756;28;20049;-55
2023/08/25 14:50:35;;;;;;;19.20;5.57;;;;;;;;;;6265532;28;20512;-55
2023/08/25 14:53:36;;;;;;;8.57;5.03;;;;;;;;;;6258900;28;20131;-51
2023/08/25 14:56:36;;;;;;;;;;;;;;;;;;6256790;28;20041;-55
2023/08/25 14:59:38;;;;;;;28.83;6.40;;;;;;;;;;6257950;28;19924;-54
2023/08/25 15:02:41;;;;;;;13.02;5.35;;;;;;;;;;6258409;28;20055;-53
2023/08/25 15:05:42;;;;;;;10.13;4.90;;;;;;;;;;6255091;28;20370;-54
2023/08/25 15:08:42;;;;;;;;;;;;;;;;;;6259225;28;20049;-55
2023/08/25 15:11:43;;;;;;;10.43;4.57;;;;;;;;;;6258322;28;19924;-53
2023/08/25 15:14:43;;;;;;;11.60;4.80;;;;;;;;;;6259775;28;20130;-52
2023/08/25 15:17:44;;;;;;;8.93;4.90;;;;;;;;;;6257817;28;20506;-53
2023/08/25 15:20:54;;;;;;;;;;;;;;;;;;6258137;28;20554;-55
2023/08/25 15:23:54;;;;;;;9.10;4.40;;;;;;;;;;6256510;28;19924;-55
2023/08/25 15:26:55;;;;;;;;;;;;;;;;;;6259612;28;20045;-54
2023/08/25 15:29:57;;;;;;;8.10;4.13;;;;;;;;;;6260003;28;20430;-53
2023/08/25 15:32:58;;;;;;;8.02;3.78;;;;;;;;;;6257929;28;20139;-54
2023/08/25 15:35:58;;;;;;;;;;;;;;;;;;6259953;28;20053;-51
2023/08/25 15:39:00;;;;;;;19.00;4.63;;;;;;;;;;6259218;28;19968;-52
2023/08/25 15:42:01;;;;;;;5.88;3.47;;;;;;;;;;6259114;28;20385;-54
2023/08/25 15:45:03;;;;;;;;;;;;;;;;;;6265592;28;20052;-55
2023/08/25 15:48:03;;;;;;;;;;;;;;;;;;6261727;28;20301;-54
2023/08/25 15:51:05;;;;;;;7.30;3.50;;;;;;;;;;6258766;28;19928;-55
2023/08/25 15:54:05;;;;;;;;;;;;;;;;;;6260347;28;20049;-54
2023/08/25 15:57:06;;;;;;;8.32;3.88;;;;;;;;;;6259144;28;19967;-54
2023/08/25 16:00:08;;;;;;;;;;;;;;;;;;6257735;28;20048;-55
2023/08/25 16:03:08;;;;;;;5.35;3.17;;;;;;;;;;6257757;28;19921;-54
2023/08/25 16:06:10;;;;;;;6.93;3.50;;;;;;;;;;6257902;28;20071;-54
2023/08/25 16:09:12;;;;;;;9.73;3.88;;;;;;;;;;6256789;28;20128;-53
2023/08/25 16:12:12;;;;;;;10.70;4.10;;;;;;;;;;6255513;28;20420;-56
2023/08/25 16:15:13;;;;;;;;;;;;;;;;;;6256980;28;20051;-54
2023/08/25 16:18:13;;;;;;;14.20;4.20;;;;;;;;;;6257861;28;19975;-53
2023/08/25 16:21:14;;;;;;;14.90;4.13;;;;;;;;;;6255984;28;20045;-54
2023/08/25 16:24:15;;;;;;;9.88;3.90;;;;;;;;;;6257211;28;20056;-54
2023/08/25 16:27:16;;;;;;;5.82;3.40;;;;;;;;;;6256921;28;20049;-54
2023/08/25 16:30:18;;;;;;;10.23;3.70;;;;;;;;;;6256386;28;20053;-53
2023/08/25 16:33:18;;;;;;;12.48;3.85;;;;;;;;;;6257971;28;20049;-55
2023/08/25 16:36:19;;;;;;;;;;;;;;;;;;6259190;28;20064;-53
2023/08/25 16:39:19;;;;;;;4.57;3.10;;;;;;;;;;6256860;28;19940;-54
2023/08/25 16:42:20;;;;;;;6.90;3.37;;;;;;;;;;6258611;28;20037;-53
2023/08/25 16:45:20;;;;;;;7.97;3.20;;;;;;;;;;6257733;28;20949;-53
2023/08/25 16:48:22;;;;;;;6.47;3.47;;;;;;;;;;6256167;28;20068;-55
2023/08/25 16:51:22;;;;;;;7.13;3.53;;;;;;;;;;6255771;28;20298;-55
2023/08/25 16:54:23;;;;;;;7.20;3.30;;;;;;;;;;6258304;28;20411;-54
2023/08/25 16:57:24;;;;;;;6.75;3.10;;;;;;;;;;6258263;28;20040;-54
2023/08/25 17:00:24;;;;;;;7.35;3.40;;;;;;;;;;6247550;28;20056;-54
2023/08/25 17:03:25;;;;;;;9.25;3.40;;;;;;;;;;6246769;28;20064;-51
2023/08/25 17:06:25;;;;;;;6.13;3.25;;;;;;;;;;6247864;28;20045;-52
2023/08/25 17:09:26;;;;;;;6.50;3.63;;;;;;;;;;6251526;28;20061;-53
2023/08/25 17:12:27;;;;;;;8.88;3.40;;;;;;;;;;6254646;28;20056;-52
2023/08/25 17:15:35;;;;;;;12.63;3.85;;;;;;;;;;6255910;28;20091;-51
2023/08/25 17:18:36;;;;;;;14.35;4.30;;;;;;;;;;6254632;28;20057;-54
2023/08/25 17:21:36;;;;;;;16.33;4.00;;;;;;;;;;6253935;28;20041;-53
2023/08/25 17:24:37;;;;;;;17.30;4.28;;;;;;;;;;6256368;28;20053;-49
2023/08/25 17:27:39;;;;;;;12.85;4.15;;;;;;;;;;6256235;28;20045;-52
2023/08/25 17:30:40;;;;;;;20.05;5.13;;;;;;;;;;6254599;28;20158;-52
2023/08/25 17:33:41;;;;;;;9.35;4.00;;;;;;;;;;6258130;28;20072;-55
2023/08/25 17:36:41;;;;;;;8.13;3.90;;;;;;;;;;6259047;28;20049;-61
2023/08/25 17:39:42;;;;;;;10.70;5.05;;;;;;;;;;6259655;28;20106;-50
2023/08/25 17:42:42;;;;;;;9.03;4.70;;;;;;;;;;6258371;28;20174;-55
2023/08/25 17:45:43;;;;;;;10.20;4.80;;;;;;;;;;6257962;28;20041;-57
2023/08/25 17:48:43;;;;;;;13.00;4.23;;;;;;;;;;6255976;28;20052;-54
2023/08/25 17:51:44;;;;;;;10.18;4.47;;;;;;;;;;6257395;28;20052;-52
2023/08/25 17:54:45;;;;;;;9.13;4.90;;;;;;;;;;6259866;28;20055;-52